Time;durP1;ratioP1;P1;durP2;ratioP2;P2;SDS_P1;SDS_P2;PMS_P1;PMS_P2;Temp;Humidity;BMP_temperature;BMP_pressure;BME280_temperature;BME280_humidity;BME280_pressure;Samples;Min_cycle;Max_cycle;Signal;HPM_P1;HPM_P2
2023/05/21 00:02:20;;;;;;;24.48;18.95;;;;;;;;;;4821806;29;20034;-95
2023/05/21 00:04:46;;;;;;;21.02;17.20;;;;;;;;;;4822918;29;20038;-96
2023/05/21 00:07:14;;;;;;;17.42;15.57;;;;;;;;;;4814146;29;20030;-96
2023/05/21 00:09:40;;;;;;;18.17;15.80;;;;;;;;;;4813021;29;20046;-95
2023/05/21 00:12:09;;;;;;;23.73;17.95;;;;;;;;;;4830866;29;20106;-95
2023/05/21 00:14:38;;;;;;;20.25;18.05;;;;;;;;;;4833092;29;20037;-96
2023/05/21 00:17:04;;;;;;;22.38;15.77;;;;;;;;;;4826647;29;20145;-96
2023/05/21 00:19:32;;;;;;;20.40;17.45;;;;;;;;;;4813567;29;20508;-96
2023/05/21 00:22:01;;;;;;;22.90;18.48;;;;;;;;;;4813184;29;20030;-96
2023/05/21 00:24:28;;;;;;;22.52;18.27;;;;;;;;;;4812697;29;20087;-95
2023/05/21 00:26:55;;;;;;;24.40;19.20;;;;;;;;;;4813833;29;20030;-96
2023/05/21 00:29:21;;;;;;;24.10;19.40;;;;;;;;;;4813132;29;20081;-96
2023/05/21 00:31:49;;;;;;;24.83;19.80;;;;;;;;;;4822486;29;20034;-96
2023/05/21 00:34:16;;;;;;;23.73;19.42;;;;;;;;;;4823798;29;20084;-96
2023/05/21 00:36:44;;;;;;;24.98;18.48;;;;;;;;;;4815554;29;20178;-96
2023/05/21 00:39:11;;;;;;;21.23;17.50;;;;;;;;;;4825416;29;20380;-96
2023/05/21 00:41:38;;;;;;;23.92;19.17;;;;;;;;;;4836430;29;20085;-96
2023/05/21 00:44:05;;;;;;;27.42;20.13;;;;;;;;;;4829898;29;20098;-96
2023/05/21 00:46:31;;;;;;;26.88;20.75;;;;;;;;;;4818729;29;20036;-95
2023/05/21 00:48:58;;;;;;;21.95;18.08;;;;;;;;;;4829829;29;20090;-94
2023/05/21 00:51:28;;;;;;;26.50;20.40;;;;;;;;;;4830321;29;20026;-95
2023/05/21 00:53:57;;;;;;;27.02;20.15;;;;;;;;;;4830888;29;20026;-96
2023/05/21 00:56:26;;;;;;;25.48;19.98;;;;;;;;;;4830887;29;20030;-95
2023/05/21 00:58:52;;;;;;;25.50;19.10;;;;;;;;;;4829819;29;20149;-96
2023/05/21 01:01:18;;;;;;;25.88;19.33;;;;;;;;;;4827429;29;20032;-96
2023/05/21 01:03:44;;;;;;;21.38;16.85;;;;;;;;;;4813355;29;20052;-95
2023/05/21 01:06:12;;;;;;;24.17;18.48;;;;;;;;;;4815199;29;20033;-96
2023/05/21 01:08:39;;;;;;;21.60;17.73;;;;;;;;;;4829278;29;20407;-96
2023/05/21 01:11:09;;;;;;;23.92;17.25;;;;;;;;;;4823488;29;20038;-96
2023/05/21 01:13:36;;;;;;;22.30;17.40;;;;;;;;;;4830043;29;20037;-96
2023/05/21 01:16:05;;;;;;;23.02;17.02;;;;;;;;;;4831074;29;20034;-96
2023/05/21 01:18:33;;;;;;;22.35;17.10;;;;;;;;;;4830340;29;20030;-95
2023/05/21 01:21:00;;;;;;;22.38;18.73;;;;;;;;;;4830481;29;20026;-96
2023/05/21 01:23:27;;;;;;;20.60;16.88;;;;;;;;;;4829722;29;20502;-96
2023/05/21 01:25:53;;;;;;;22.70;16.90;;;;;;;;;;4830033;29;20029;-96
2023/05/21 01:28:19;;;;;;;24.30;17.30;;;;;;;;;;4829800;29;20042;-96
2023/05/21 01:30:45;;;;;;;23.48;17.60;;;;;;;;;;4830592;29;20032;-96
2023/05/21 01:33:14;;;;;;;21.48;17.50;;;;;;;;;;4824685;29;20388;-96
2023/05/21 01:35:47;;;;;;;24.40;18.23;;;;;;;;;;4812952;29;20391;-96
2023/05/21 01:38:29;;;;;;;24.13;18.55;;;;;;;;;;4830979;29;20025;-95
2023/05/21 01:40:57;;;;;;;24.02;17.73;;;;;;;;;;4842037;29;20046;-96
2023/05/21 01:43:24;;;;;;;24.08;19.15;;;;;;;;;;4839142;29;20551;-95
2023/05/21 01:45:53;;;;;;;22.73;18.40;;;;;;;;;;4831965;29;20064;-95
2023/05/21 01:48:22;;;;;;;22.50;17.25;;;;;;;;;;4831477;29;20042;-94
2023/05/21 01:50:51;;;;;;;25.95;18.52;;;;;;;;;;4823638;29;20051;-96
2023/05/21 01:53:17;;;;;;;22.98;17.83;;;;;;;;;;4816968;29;20050;-94
2023/05/21 01:55:44;;;;;;;19.58;15.55;;;;;;;;;;4833906;29;20041;-94
2023/05/21 01:58:18;;;;;;;23.38;17.90;;;;;;;;;;4813121;29;20111;-95
2023/05/21 02:00:44;;;;;;;20.27;15.48;;;;;;;;;;4813727;29;20033;-95
2023/05/21 02:03:10;;;;;;;22.42;16.88;;;;;;;;;;4812901;29;20519;-96
2023/05/21 02:05:37;;;;;;;23.75;18.77;;;;;;;;;;4812884;29;20041;-96
2023/05/21 02:08:07;;;;;;;25.02;18.92;;;;;;;;;;4813529;29;20034;-96
2023/05/21 02:10:33;;;;;;;25.88;18.02;;;;;;;;;;4813398;29;20365;-96
2023/05/21 02:13:00;;;;;;;18.60;16.17;;;;;;;;;;4813368;29;20033;-96
2023/05/21 02:15:26;;;;;;;25.23;18.45;;;;;;;;;;4815215;29;20038;-96
2023/05/21 02:17:52;;;;;;;23.20;18.05;;;;;;;;;;4830447;29;20041;-96
2023/05/21 02:20:18;;;;;;;23.88;17.13;;;;;;;;;;4829900;29;20460;-96
2023/05/21 02:22:48;;;;;;;20.52;17.73;;;;;;;;;;4830494;29;20026;-96
2023/05/21 02:25:15;;;;;;;25.08;19.08;;;;;;;;;;4830461;29;20507;-95
2023/05/21 02:27:42;;;;;;;26.80;19.17;;;;;;;;;;4832011;29;20427;-95
2023/05/21 02:30:09;;;;;;;22.30;17.92;;;;;;;;;;4830053;29;20037;-95
2023/05/21 02:32:35;;;;;;;22.20;19.27;;;;;;;;;;4829528;29;20041;-96
2023/05/21 02:35:02;;;;;;;28.30;17.65;;;;;;;;;;4829730;29;20033;-96
2023/05/21 02:37:32;;;;;;;26.27;18.48;;;;;;;;;;4830865;29;20033;-96
2023/05/21 02:39:59;;;;;;;26.08;19.83;;;;;;;;;;4831001;29;20030;-96
2023/05/21 02:42:27;;;;;;;23.10;18.05;;;;;;;;;;4827668;29;20023;-96
2023/05/21 02:44:57;;;;;;;20.85;16.40;;;;;;;;;;4835787;29;20018;-96
2023/05/21 02:47:24;;;;;;;25.25;19.08;;;;;;;;;;4819924;29;20038;-96
2023/05/21 02:50:04;;;;;;;24.58;18.80;;;;;;;;;;4812443;29;20050;-95
2023/05/21 02:52:31;;;;;;;28.10;20.05;;;;;;;;;;4823983;29;20326;-96
2023/05/21 02:54:57;;;;;;;23.92;18.38;;;;;;;;;;4830547;29;20030;-96
2023/05/21 02:57:23;;;;;;;30.85;20.23;;;;;;;;;;4830044;29;20117;-95
2023/05/21 02:59:52;;;;;;;22.92;18.27;;;;;;;;;;4830104;29;20026;-96
2023/05/21 03:02:18;;;;;;;25.95;19.45;;;;;;;;;;4829415;29;20026;-96
2023/05/21 03:04:50;;;;;;;23.98;16.67;;;;;;;;;;4829468;29;20034;-95
2023/05/21 03:07:19;;;;;;;28.17;20.17;;;;;;;;;;4819826;29;20057;-96
2023/05/21 03:09:45;;;;;;;25.55;17.60;;;;;;;;;;4811394;29;20038;-96
2023/05/21 03:12:16;;;;;;;22.58;17.58;;;;;;;;;;4826346;29;20050;-96
2023/05/21 03:14:43;;;;;;;26.55;19.98;;;;;;;;;;4813080;29;20083;-94
2023/05/21 03:17:12;;;;;;;24.45;18.38;;;;;;;;;;4815224;29;20062;-95
2023/05/21 03:19:39;;;;;;;25.58;18.67;;;;;;;;;;4813040;29;20026;-96
2023/05/21 03:22:06;;;;;;;21.88;16.95;;;;;;;;;;4828819;29;20041;-96
2023/05/21 03:24:32;;;;;;;22.77;15.52;;;;;;;;;;4812537;29;20038;-96
2023/05/21 03:27:00;;;;;;;20.70;16.77;;;;;;;;;;4819525;29;20101;-96
2023/05/21 03:29:27;;;;;;;21.75;16.95;;;;;;;;;;4813600;29;20050;-96
2023/05/21 03:31:53;;;;;;;21.45;17.50;;;;;;;;;;4820533;29;20496;-95
2023/05/21 03:34:20;;;;;;;21.88;16.50;;;;;;;;;;4833750;29;20098;-96
2023/05/21 03:36:47;;;;;;;25.35;18.33;;;;;;;;;;4832572;29;20050;-95
2023/05/21 03:39:13;;;;;;;22.55;17.83;;;;;;;;;;4835005;29;20061;-96
2023/05/21 03:41:42;;;;;;;21.73;16.05;;;;;;;;;;4829902;29;20058;-96
2023/05/21 03:44:08;;;;;;;22.90;16.63;;;;;;;;;;4827001;29;20018;-95
2023/05/21 03:46:34;;;;;;;24.08;17.67;;;;;;;;;;4845444;29;20025;-96
2023/05/21 03:49:03;;;;;;;22.00;17.67;;;;;;;;;;4837798;29;20128;-96
2023/05/21 03:51:30;;;;;;;19.40;15.80;;;;;;;;;;4834934;29;20058;-96
2023/05/21 03:54:00;;;;;;;22.65;16.73;;;;;;;;;;4833356;29;20045;-96
2023/05/21 03:56:28;;;;;;;20.63;16.50;;;;;;;;;;4833606;29;20061;-96
2023/05/21 03:58:55;;;;;;;25.77;16.42;;;;;;;;;;4833819;29;20046;-96
2023/05/21 04:01:24;;;;;;;20.70;15.05;;;;;;;;;;4834450;29;20081;-96
2023/05/21 04:03:51;;;;;;;19.38;15.93;;;;;;;;;;4826475;29;20026;-96
2023/05/21 04:06:17;;;;;;;18.42;15.82;;;;;;;;;;4824589;29;20463;-96
2023/05/21 04:08:44;;;;;;;18.70;15.43;;;;;;;;;;4836245;29;20072;-96
2023/05/21 04:11:15;;;;;;;17.25;14.40;;;;;;;;;;4817734;29;20034;-96
2023/05/21 04:13:46;;;;;;;18.90;13.98;;;;;;;;;;4815263;29;20035;-96
2023/05/21 04:16:33;;;;;;;16.80;13.13;;;;;;;;;;4819867;29;20046;-96
2023/05/21 04:19:09;;;;;;;;;;;;;;;;;;;;;
2023/05/21 04:22:03;;;;;;;16.45;12.07;;;;;;;;;;4840141;29;20099;-96
2023/05/21 04:24:36;;;;;;;15.23;12.32;;;;;;;;;;4841545;29;20030;-96
2023/05/21 04:30:22;;;;;;;13.50;10.98;;;;;;;;;;4793938;30;20032;-96
2023/05/21 04:33:02;;;;;;;14.75;13.05;;;;;;;;;;4836520;29;20038;-96
2023/05/21 04:35:34;;;;;;;16.75;13.13;;;;;;;;;;4818124;29;20042;-96
2023/05/21 04:38:24;;;;;;;13.00;11.70;;;;;;;;;;4830113;29;20034;-96
2023/05/21 04:40:51;;;;;;;13.38;11.88;;;;;;;;;;4832469;29;20046;-96
2023/05/21 04:43:25;;;;;;;16.13;12.98;;;;;;;;;;4835104;29;20035;-96
2023/05/21 04:45:54;;;;;;;16.73;13.75;;;;;;;;;;4818081;29;20055;-96
2023/05/21 04:48:25;;;;;;;14.57;12.82;;;;;;;;;;4837520;29;20034;-95
2023/05/21 04:50:54;;;;;;;15.60;13.27;;;;;;;;;;4837032;29;20049;-96
2023/05/21 04:53:34;;;;;;;12.80;10.98;;;;;;;;;;4830832;29;20026;-96
2023/05/21 04:56:09;;;;;;;14.18;11.82;;;;;;;;;;4817865;29;20035;-96
2023/05/21 04:58:39;;;;;;;14.30;11.30;;;;;;;;;;4831451;29;20195;-96
2023/05/21 05:01:07;;;;;;;11.70;10.35;;;;;;;;;;4826852;29;20114;-96
2023/05/21 05:06:57;;;;;;;;;;;;;;;;;;;;;
2023/05/21 05:09:34;;;;;;;10.95;8.80;;;;;;;;;;4848487;29;20045;-95
2023/05/21 05:12:05;;;;;;;12.43;8.93;;;;;;;;;;4831660;29;20026;-96
2023/05/21 05:14:31;;;;;;;10.52;8.07;;;;;;;;;;4815795;29;20042;-96
2023/05/21 05:17:00;;;;;;;12.32;9.90;;;;;;;;;;4830063;29;20092;-95
2023/05/21 05:19:30;;;;;;;9.43;8.30;;;;;;;;;;4844373;29;20093;-93
2023/05/21 05:21:59;;;;;;;9.40;7.72;;;;;;;;;;4833332;29;20026;-94
2023/05/21 05:24:28;;;;;;;10.05;9.05;;;;;;;;;;4830657;29;20037;-95
2023/05/21 05:26:54;;;;;;;9.60;7.75;;;;;;;;;;4818358;29;20125;-96
2023/05/21 05:29:24;;;;;;;10.45;7.85;;;;;;;;;;4831527;29;20128;-96
2023/05/21 05:31:57;;;;;;;10.52;7.40;;;;;;;;;;4846660;29;20125;-95
2023/05/21 05:35:00;;;;;;;;;;;;;;;;;;;;;
2023/05/21 05:37:28;;;;;;;11.38;7.75;;;;;;;;;;4810536;29;20052;-96
2023/05/21 05:40:07;;;;;;;10.10;6.38;;;;;;;;;;4845081;29;20046;-96
2023/05/21 05:42:40;;;;;;;8.85;6.60;;;;;;;;;;5071721;23;20081;-95
2023/05/21 05:45:15;;;;;;;11.57;6.80;;;;;;;;;;4852984;29;20026;-96
2023/05/21 05:47:42;;;;;;;9.02;6.60;;;;;;;;;;4852343;29;20125;-95
2023/05/21 05:50:10;;;;;;;8.13;6.57;;;;;;;;;;4854781;29;20057;-93
2023/05/21 05:52:37;;;;;;;10.98;6.82;;;;;;;;;;4858794;29;20559;-93
2023/05/21 05:55:07;;;;;;;9.23;7.00;;;;;;;;;;4840196;29;20034;-95
2023/05/21 05:57:34;;;;;;;9.82;6.53;;;;;;;;;;4835300;29;20026;-95
2023/05/21 06:00:01;;;;;;;11.65;6.93;;;;;;;;;;4835611;29;20034;-96
2023/05/21 06:02:27;;;;;;;8.70;7.47;;;;;;;;;;4848786;29;20037;-93
2023/05/21 06:04:59;;;;;;;8.98;7.32;;;;;;;;;;4846472;29;20025;-93
2023/05/21 06:07:30;;;;;;;9.25;7.03;;;;;;;;;;4848123;29;20067;-96
2023/05/21 06:10:03;;;;;;;9.30;6.93;;;;;;;;;;4848843;29;20566;-96
2023/05/21 06:12:29;;;;;;;;;;;;;;;;;;4848390;29;20033;-96
2023/05/21 06:14:55;;;;;;;9.05;7.05;;;;;;;;;;4849256;29;19908;-96
2023/05/21 06:17:21;;;;;;;8.30;6.93;;;;;;;;;;4838070;29;20046;-94
2023/05/21 06:19:47;;;;;;;8.52;7.30;;;;;;;;;;4830007;29;20029;-94
2023/05/21 06:22:13;;;;;;;9.25;6.35;;;;;;;;;;4829114;29;20061;-95
2023/05/21 06:24:39;;;;;;;7.20;6.03;;;;;;;;;;4835549;29;20030;-96
2023/05/21 06:27:12;;;;;;;9.63;7.10;;;;;;;;;;4854447;29;20030;-96
2023/05/21 06:32:59;;;;;;;11.82;6.32;;;;;;;;;;4837020;29;20117;-95
2023/05/21 06:35:28;;;;;;;8.77;7.38;;;;;;;;;;4826054;29;20041;-94
2023/05/21 06:38:16;;;;;;;7.93;6.03;;;;;;;;;;4848490;29;20077;-95
2023/05/21 06:40:46;;;;;;;7.53;5.82;;;;;;;;;;4845992;29;20502;-94
2023/05/21 06:43:12;;;;;;;8.70;6.53;;;;;;;;;;4845741;29;20109;-95
2023/05/21 06:45:41;;;;;;;7.85;5.63;;;;;;;;;;4845990;29;20037;-94
2023/05/21 06:48:17;;;;;;;10.68;6.22;;;;;;;;;;4842126;29;20045;-93
2023/05/21 06:51:03;;;;;;;9.02;6.35;;;;;;;;;;4837724;29;20534;-95
2023/05/21 06:53:47;;;;;;;7.60;5.47;;;;;;;;;;4844346;29;20113;-96
2023/05/21 06:56:14;;;;;;;7.55;4.78;;;;;;;;;;4845778;29;20162;-93
2023/05/21 06:59:05;;;;;;;6.97;5.32;;;;;;;;;;4830745;29;20041;-94
2023/05/21 07:01:34;;;;;;;7.22;5.10;;;;;;;;;;4845319;29;20078;-96
2023/05/21 07:04:21;;;;;;;8.75;4.68;;;;;;;;;;4838530;29;20437;-95
2023/05/21 07:06:51;;;;;;;5.65;4.57;;;;;;;;;;4827255;29;20480;-94
2023/05/21 07:09:17;;;;;;;10.95;4.53;;;;;;;;;;4826832;29;20433;-94
2023/05/21 07:11:46;;;;;;;7.65;4.60;;;;;;;;;;4827866;29;20022;-95
2023/05/21 07:14:22;;;;;;;7.45;4.80;;;;;;;;;;4827392;29;20094;-94
2023/05/21 07:22:43;;;;;;;5.60;4.10;;;;;;;;;;4863627;29;20055;-89
2023/05/21 07:25:10;;;;;;;9.60;4.38;;;;;;;;;;4848015;29;20125;-94
2023/05/21 07:27:36;;;;;;;5.18;4.47;;;;;;;;;;4840614;29;20127;-91
2023/05/21 07:30:02;;;;;;;4.72;4.20;;;;;;;;;;4860754;29;20041;-92
2023/05/21 07:32:28;;;;;;;7.35;5.00;;;;;;;;;;4846776;29;20022;-94
2023/05/21 07:35:08;;;;;;;;;;;;;;;;;;;;;
2023/05/21 07:38:02;;;;;;;6.07;4.00;;;;;;;;;;4858134;29;20069;-95
2023/05/21 07:40:31;;;;;;;6.30;4.55;;;;;;;;;;4826019;29;20042;-92
2023/05/21 07:43:06;;;;;;;6.78;5.00;;;;;;;;;;4855556;29;20044;-95
2023/05/21 07:46:11;;;;;;;7.00;4.40;;;;;;;;;;4825591;29;20049;-96
2023/05/21 07:48:57;;;;;;;5.07;4.22;;;;;;;;;;4815385;29;20060;-91
2023/05/21 07:51:24;;;;;;;6.10;3.97;;;;;;;;;;4832806;29;20038;-93
2023/05/21 07:54:14;;;;;;;6.07;3.92;;;;;;;;;;4811502;29;20046;-96
2023/05/21 07:56:48;;;;;;;7.53;4.32;;;;;;;;;;4817484;29;20046;-95
2023/05/21 08:00:05;;;;;;;7.45;4.70;;;;;;;;;;4814608;29;20038;-96
2023/05/21 08:02:33;;;;;;;8.93;4.07;;;;;;;;;;4826104;29;20034;-95
2023/05/21 08:05:00;;;;;;;7.72;3.97;;;;;;;;;;4811547;29;20082;-95
2023/05/21 08:07:36;;;;;;;5.97;4.30;;;;;;;;;;4811155;29;20185;-95
2023/05/21 08:10:10;;;;;;;8.57;4.30;;;;;;;;;;4809330;29;20404;-94
2023/05/21 08:12:41;;;;;;;7.03;3.67;;;;;;;;;;4825894;29;20046;-95
2023/05/21 08:15:50;;;;;;;;;;;;;;;;;;;;;
2023/05/21 08:21:10;;;;;;;7.25;4.38;;;;;;;;;;4819393;29;20030;-95
2023/05/21 08:23:37;;;;;;;7.55;4.18;;;;;;;;;;4802561;29;20110;-96
2023/05/21 08:26:38;;;;;;;6.40;4.03;;;;;;;;;;4801028;29;20087;-96
2023/05/21 08:32:08;;;;;;;;;;;;;;;;;;4793679;30;20042;-96
2023/05/21 08:35:00;;;;;;;7.30;4.00;;;;;;;;;;4881582;24;19925;-96
2023/05/21 08:37:34;;;;;;;4.55;3.85;;;;;;;;;;4848031;29;20499;-95
2023/05/21 08:40:07;;;;;;;7.25;3.90;;;;;;;;;;4849495;29;20033;-96
2023/05/21 08:42:41;;;;;;;6.07;3.75;;;;;;;;;;4847030;29;20483;-96
2023/05/21 08:45:07;;;;;;;4.85;3.63;;;;;;;;;;4846358;29;20030;-96
2023/05/21 08:47:39;;;;;;;7.22;4.07;;;;;;;;;;4844272;29;20058;-96
2023/05/21 08:50:10;;;;;;;4.80;3.97;;;;;;;;;;4843575;29;20038;-95
2023/05/21 08:52:51;;;;;;;7.32;3.88;;;;;;;;;;4843775;29;20301;-96
2023/05/21 08:55:26;;;;;;;5.90;3.70;;;;;;;;;;4845273;29;20049;-93
2023/05/21 08:58:21;;;;;;;;;;;;;;;;;;;;;
2023/05/21 09:01:11;;;;;;;7.85;4.03;;;;;;;;;;4827846;29;20034;-95
2023/05/21 09:03:42;;;;;;;5.75;4.47;;;;;;;;;;4829905;29;20038;-96
2023/05/21 09:06:15;;;;;;;6.50;4.50;;;;;;;;;;4844097;29;20099;-95
2023/05/21 09:09:00;;;;;;;9.15;4.65;;;;;;;;;;4842767;29;20127;-95
2023/05/21 09:11:29;;;;;;;6.55;4.25;;;;;;;;;;4855635;29;20025;-95
2023/05/21 09:13:55;;;;;;;5.30;4.80;;;;;;;;;;4860555;29;20043;-95
2023/05/21 09:16:22;;;;;;;8.70;4.72;;;;;;;;;;4848151;29;20030;-95
2023/05/21 09:18:48;;;;;;;8.93;4.93;;;;;;;;;;4860884;29;20037;-93
2023/05/21 09:21:25;;;;;;;5.65;5.00;;;;;;;;;;4845435;29;20034;-94
2023/05/21 09:23:58;;;;;;;9.32;5.43;;;;;;;;;;4844032;29;20034;-92
2023/05/21 09:26:25;;;;;;;7.68;5.20;;;;;;;;;;4859763;29;20040;-93
2023/05/21 09:28:56;;;;;;;6.45;5.18;;;;;;;;;;4856310;29;20100;-92
2023/05/21 09:34:43;;;;;;;6.93;5.20;;;;;;;;;;4810709;29;20054;-96
2023/05/21 09:37:13;;;;;;;5.90;4.97;;;;;;;;;;4828155;29;20039;-96
2023/05/21 09:39:42;;;;;;;8.00;5.18;;;;;;;;;;4838262;29;20026;-94
2023/05/21 09:42:38;;;;;;;6.93;5.10;;;;;;;;;;4870995;29;20045;-96
2023/05/21 09:45:48;;;;;;;6.70;5.18;;;;;;;;;;4830940;29;20043;-96
2023/05/21 09:48:15;;;;;;;6.15;5.00;;;;;;;;;;4803398;29;20048;-95
2023/05/21 09:50:48;;;;;;;8.18;5.22;;;;;;;;;;4871290;29;20034;-96
2023/05/21 09:53:16;;;;;;;8.50;5.20;;;;;;;;;;4859065;29;20125;-96
2023/05/21 09:55:42;;;;;;;8.20;4.93;;;;;;;;;;4860886;29;20329;-89
2023/05/21 10:05:57;;;;;;;6.40;4.97;;;;;;;;;;5520480;23;20094;-96
2023/05/21 10:14:22;;;;;;;6.50;5.03;;;;;;;;;;4880229;24;20050;-95
2023/05/21 10:20:05;;;;;;;6.40;4.72;;;;;;;;;;4855586;29;20052;-96
2023/05/21 10:25:24;;;;;;;9.43;5.32;;;;;;;;;;5117247;23;20049;-96
2023/05/21 10:27:51;;;;;;;7.60;5.40;;;;;;;;;;4856485;29;20057;-93
2023/05/21 10:33:45;;;;;;;6.00;4.72;;;;;;;;;;4872966;29;20037;-96
2023/05/21 10:39:13;;;;;;;8.85;4.45;;;;;;;;;;5016340;24;20065;-96
2023/05/21 10:42:01;;;;;;;9.00;4.75;;;;;;;;;;4881076;29;20033;-94
2023/05/21 10:44:53;;;;;;;8.07;5.25;;;;;;;;;;4888559;29;20044;-94
2023/05/21 10:59:22;;;;;;;8.52;5.38;;;;;;;;;;4967390;24;20069;-94
2023/05/21 11:02:01;;;;;;;6.88;5.22;;;;;;;;;;4854606;29;20044;-96
2023/05/21 11:04:57;;;;;;;5.80;5.10;;;;;;;;;;4868556;29;20041;-95
2023/05/21 11:10:24;;;;;;;8.25;6.10;;;;;;;;;;4900309;23;20056;-95
2023/05/21 11:13:12;;;;;;;7.13;4.95;;;;;;;;;;4843797;29;20045;-93
2023/05/21 11:15:57;;;;;;;7.30;5.00;;;;;;;;;;4857301;29;20536;-92
2023/05/21 11:18:43;;;;;;;7.70;5.13;;;;;;;;;;4837119;29;20494;-96
2023/05/21 11:21:13;;;;;;;5.82;5.20;;;;;;;;;;5013478;24;20061;-95
2023/05/21 11:24:01;;;;;;;9.00;4.93;;;;;;;;;;4852283;29;20034;-96
2023/05/21 11:26:57;;;;;;;8.23;5.40;;;;;;;;;;4846853;29;20040;-96
2023/05/21 11:29:39;;;;;;;8.68;6.57;;;;;;;;;;4810258;29;20126;-94
2023/05/21 11:32:08;;;;;;;8.13;5.10;;;;;;;;;;4845358;29;20368;-95
2023/05/21 11:34:52;;;;;;;6.72;5.20;;;;;;;;;;4845584;29;20419;-94
2023/05/21 11:37:33;;;;;;;5.35;4.47;;;;;;;;;;4845823;29;20051;-95
2023/05/21 11:40:21;;;;;;;6.97;4.50;;;;;;;;;;4845486;29;20029;-95
2023/05/21 11:42:59;;;;;;;8.52;4.82;;;;;;;;;;4852163;29;20033;-95
2023/05/21 11:45:45;;;;;;;7.43;4.80;;;;;;;;;;4850345;29;20030;-96
2023/05/21 11:54:03;;;;;;;7.95;4.20;;;;;;;;;;4840914;29;20091;-95
2023/05/21 11:56:32;;;;;;;7.70;5.03;;;;;;;;;;4834420;29;20050;-95
2023/05/21 11:59:21;;;;;;;7.05;4.63;;;;;;;;;;4871481;29;20069;-96
2023/05/21 12:01:59;;;;;;;5.47;4.38;;;;;;;;;;4853539;29;20037;-96
2023/05/21 12:04:40;;;;;;;6.05;4.57;;;;;;;;;;4852127;29;20121;-96
2023/05/21 12:10:23;;;;;;;5.13;4.50;;;;;;;;;;4901698;24;20061;-96
2023/05/21 12:27:57;;;;;;;6.47;4.15;;;;;;;;;;5749786;23;20049;-92
2023/05/21 12:31:26;;;;;;;6.03;4.45;;;;;;;;;;5163743;24;20037;-93
2023/05/21 12:34:32;;;;;;;;;;;;;;;;;;;;;
2023/05/21 12:46:53;;;;;;;7.13;4.78;;;;;;;;;;4811151;29;20044;-96
2023/05/21 12:52:45;;;;;;;7.25;4.55;;;;;;;;;;4852432;29;20148;-96
2023/05/21 12:55:14;;;;;;;5.20;4.05;;;;;;;;;;4858811;29;20038;-94
2023/05/21 12:57:42;;;;;;;6.22;4.40;;;;;;;;;;4848255;29;20056;-96
2023/05/21 13:00:25;;;;;;;8.18;4.43;;;;;;;;;;4847886;29;20022;-95
2023/05/21 13:02:55;;;;;;;6.05;4.68;;;;;;;;;;4863736;29;20045;-96
2023/05/21 13:05:22;;;;;;;6.05;4.28;;;;;;;;;;4865941;29;20041;-95
2023/05/21 13:07:53;;;;;;;8.05;4.40;;;;;;;;;;4866215;29;20085;-95
2023/05/21 13:10:22;;;;;;;7.15;4.53;;;;;;;;;;4860058;29;20033;-94
2023/05/21 13:12:51;;;;;;;6.68;4.45;;;;;;;;;;4866797;29;20120;-95
2023/05/21 13:21:30;;;;;;;6.53;4.25;;;;;;;;;;4788893;30;20038;-91
2023/05/21 13:23:56;;;;;;;4.90;4.35;;;;;;;;;;4788424;29;20058;-92
2023/05/21 13:26:24;;;;;;;8.63;4.80;;;;;;;;;;4788723;29;20043;-91
2023/05/21 13:28:59;;;;;;;6.18;4.30;;;;;;;;;;4798150;29;20062;-96
2023/05/21 13:34:43;;;;;;;5.22;4.13;;;;;;;;;;4882144;29;20416;-95
2023/05/21 13:37:34;;;;;;;7.32;4.47;;;;;;;;;;4865894;29;20037;-93
2023/05/21 13:46:40;;;;;;;;;;;;;;;;;;;;;
2023/05/21 13:52:10;;;;;;;;;;;;;;;;;;4886363;29;20104;-95
2023/05/21 13:54:36;;;;;;;8.50;4.22;;;;;;;;;;4866215;29;20537;-94
2023/05/21 13:57:02;;;;;;;5.60;4.03;;;;;;;;;;4865318;29;20025;-96
2023/05/21 13:59:29;;;;;;;7.68;3.80;;;;;;;;;;4857477;29;20029;-90
2023/05/21 14:01:58;;;;;;;6.22;4.07;;;;;;;;;;4858123;29;20037;-95
2023/05/21 14:04:26;;;;;;;6.18;4.68;;;;;;;;;;4856271;29;20062;-90
2023/05/21 14:06:57;;;;;;;7.28;4.32;;;;;;;;;;4863391;29;20037;-93
2023/05/21 14:09:49;;;;;;;6.53;4.45;;;;;;;;;;4869133;29;20037;-96
2023/05/21 14:16:02;;;;;;;;;;;;;;;;;;;;;
2023/05/21 14:21:49;;;;;;;6.47;4.35;;;;;;;;;;4881182;29;20029;-95
2023/05/21 14:24:55;;;;;;;7.60;4.28;;;;;;;;;;4873731;29;20060;-96
2023/05/21 14:27:41;;;;;;;5.50;4.22;;;;;;;;;;4877475;29;20033;-96
2023/05/21 14:31:13;;;;;;;5.35;4.25;;;;;;;;;;4852190;29;20051;-94
2023/05/21 14:33:21;;;;;;;9.45;4.60;;;;;;;;;;4836812;29;20101;-96
2023/05/21 14:36:16;;;;;;;8.77;4.68;;;;;;;;;;4861148;29;20057;-96
2023/05/21 14:38:42;;;;;;;5.75;4.15;;;;;;;;;;4903857;24;20132;-93
2023/05/21 14:41:08;;;;;;;6.93;4.80;;;;;;;;;;4878224;29;20059;-95
2023/05/21 14:43:37;;;;;;;5.15;4.63;;;;;;;;;;4857846;29;20014;-94
2023/05/21 14:46:20;;;;;;;;;;;;;;;;;;;;;
2023/05/21 14:48:59;;;;;;;;;;;;;;;;;;4868612;29;20046;-95
2023/05/21 14:52:06;;;;;;;5.05;4.30;;;;;;;;;;4851461;29;19934;-96
2023/05/21 14:54:53;;;;;;;6.15;4.47;;;;;;;;;;4853423;29;20053;-95
2023/05/21 14:57:41;;;;;;;;;;;;;;;;;;;;;
2023/05/21 15:00:54;;;;;;;;;;;;;;;;;;;;;
2023/05/21 15:03:18;;;;;;;6.53;4.82;;;;;;;;;;4849733;29;20039;-95
2023/05/21 15:05:45;;;;;;;6.82;4.82;;;;;;;;;;4853542;29;20037;-94
2023/05/21 15:08:24;;;;;;;;;;;;;;;;;;;;;
2023/05/21 15:11:08;;;;;;;8.55;4.53;;;;;;;;;;4899867;29;20041;-92
2023/05/21 15:19:08;;;;;;;6.03;4.55;;;;;;;;;;5375631;23;20034;-95
2023/05/21 15:24:37;;;;;;;;;;;;;;;;;;;;;
2023/05/21 15:27:22;;;;;;;4.88;4.28;;;;;;;;;;5173578;23;20062;-93
2023/05/21 15:29:57;;;;;;;7.78;4.65;;;;;;;;;;5220354;24;20033;-94
2023/05/21 15:49:53;;;;;;;6.28;4.20;;;;;;;;;;5435433;24;20079;-93
2023/05/21 16:07:50;;;;;;;10.32;5.53;;;;;;;;;;5194072;23;20049;-93
2023/05/21 16:19:18;;;;;;;8.02;4.70;;;;;;;;;;5386895;23;20040;-92
2023/05/21 16:22:35;;;;;;;8.27;4.90;;;;;;;;;;5368423;24;20061;-94
2023/05/21 16:52:31;;;;;;;7.57;4.40;;;;;;;;;;5422527;23;20054;31
2023/05/21 16:55:19;;;;;;;9.85;4.55;;;;;;;;;;5621156;24;20029;-88
2023/05/21 17:01:01;;;;;;;5.82;5.00;;;;;;;;;;5413428;23;20063;-94
2023/05/21 17:03:27;;;;;;;8.65;5.88;;;;;;;;;;4972708;24;20037;-94
2023/05/21 17:09:18;;;;;;;7.90;5.07;;;;;;;;;;5097470;23;20030;-95
2023/05/21 17:16:57;;;;;;;6.90;5.25;;;;;;;;;;5108162;23;20101;-93
2023/05/21 17:46:37;;;;;;;6.90;5.50;;;;;;;;;;3189977;23;20291;-95
2023/05/21 17:49:07;;;;;;;7.88;5.97;;;;;;;;;;4793446;29;20416;-96
2023/05/21 17:51:33;;;;;;;7.22;5.63;;;;;;;;;;4810197;29;20027;-94
2023/05/21 17:53:59;;;;;;;8.13;6.10;;;;;;;;;;4809296;29;20038;-95
2023/05/21 17:56:28;;;;;;;8.02;6.07;;;;;;;;;;4808561;29;20036;-96
2023/05/21 17:58:55;;;;;;;7.38;5.82;;;;;;;;;;4805811;29;20035;-95
2023/05/21 18:01:21;;;;;;;9.52;5.68;;;;;;;;;;4791941;30;20099;-96
2023/05/21 18:03:47;;;;;;;8.48;5.88;;;;;;;;;;4794194;30;20753;-95
2023/05/21 18:06:13;;;;;;;7.95;6.28;;;;;;;;;;4790720;30;20027;-95
2023/05/21 18:08:39;;;;;;;6.75;5.80;;;;;;;;;;4790524;30;20046;-96
2023/05/21 18:11:05;;;;;;;7.97;6.05;;;;;;;;;;4790830;30;20031;-96
2023/05/21 18:13:32;;;;;;;8.13;5.90;;;;;;;;;;4795027;30;20053;-94
2023/05/21 18:15:58;;;;;;;9.70;6.28;;;;;;;;;;4794236;30;20032;-95
2023/05/21 18:18:24;;;;;;;7.32;6.38;;;;;;;;;;4792506;30;20054;-95
2023/05/21 18:20:50;;;;;;;6.75;5.47;;;;;;;;;;4802199;29;20043;-95
2023/05/21 18:23:17;;;;;;;6.22;5.63;;;;;;;;;;4793813;29;20038;-94
2023/05/21 18:25:43;;;;;;;7.10;5.97;;;;;;;;;;4793820;29;20087;-96
2023/05/21 18:28:17;;;;;;;6.65;5.93;;;;;;;;;;4799088;29;20141;-96
2023/05/21 18:30:46;;;;;;;8.57;6.53;;;;;;;;;;4796177;29;20031;-96
2023/05/21 19:09:39;;;;;;;9.73;7.90;;;;;;;;;;5008655;23;20042;-94
2023/05/21 19:14:55;;;;;;;9.57;7.47;;;;;;;;;;4951214;23;20037;-94
2023/05/21 19:17:24;;;;;;;11.68;8.25;;;;;;;;;;5010931;24;20085;-94
2023/05/21 19:19:59;;;;;;;9.77;7.80;;;;;;;;;;4863746;29;20033;-95
2023/05/21 19:22:44;;;;;;;7.85;6.97;;;;;;;;;;4868866;29;20026;-94
2023/05/21 19:25:12;;;;;;;8.82;7.93;;;;;;;;;;4848170;29;20029;-96
2023/05/21 19:27:38;;;;;;;8.35;7.32;;;;;;;;;;4840268;29;20040;-96
2023/05/21 19:30:50;;;;;;;7.32;6.63;;;;;;;;;;4834581;29;20061;-96
2023/05/21 19:33:45;;;;;;;9.13;7.35;;;;;;;;;;4862728;29;20365;-96
2023/05/21 19:36:14;;;;;;;9.32;6.90;;;;;;;;;;4770166;29;20039;-96
2023/05/21 19:38:50;;;;;;;12.73;7.05;;;;;;;;;;4835434;29;20042;-96
2023/05/21 19:41:29;;;;;;;11.32;6.75;;;;;;;;;;4815261;29;20030;-96
2023/05/21 19:44:27;;;;;;;9.93;6.97;;;;;;;;;;4842407;29;20087;-95
2023/05/21 19:55:38;;;;;;;8.38;7.13;;;;;;;;;;5569678;23;20057;-96
2023/05/21 19:58:12;;;;;;;9.73;8.05;;;;;;;;;;4844037;29;20033;-93
2023/05/21 20:00:43;;;;;;;9.30;7.03;;;;;;;;;;4840316;29;20056;-96
2023/05/21 20:03:10;;;;;;;7.65;6.70;;;;;;;;;;4835422;29;20055;-96
2023/05/21 20:06:06;;;;;;;10.40;7.47;;;;;;;;;;4843587;29;20046;-96
2023/05/21 20:08:59;;;;;;;10.25;7.53;;;;;;;;;;4858031;29;20137;-96
2023/05/21 20:11:37;;;;;;;11.82;7.60;;;;;;;;;;4843031;29;20392;-96
2023/05/21 20:14:32;;;;;;;9.10;7.35;;;;;;;;;;4827420;29;20038;-96
2023/05/21 20:22:39;;;;;;;9.82;7.57;;;;;;;;;;4997035;23;20101;-96
2023/05/21 20:25:12;;;;;;;9.82;7.35;;;;;;;;;;4868055;29;20046;-95